Stations météo

réclame
Mon MeteoGroup
Diepenbeek, Belgique (6477): Température de l'air & dewpoint: 12.01.2019 00:00:00 - 18.01.2019 00:00:00 (CET)Diepenbeek, Belgique (6477): Vitesse du vent & gusts: 12.01.2019 00:00:00 - 18.01.2019 00:00:00 (CET)Diepenbeek, Belgique (6477): Direction du vent: 12.01.2019 00:00:00 - 18.01.2019 00:00:00 (CET)Diepenbeek, Belgique (6477): reduced air pressure: 12.01.2019 00:00:00 - 18.01.2019 00:00:00 (CET)Diepenbeek, Belgique (6477): Ensoleillement: 12.01.2019 00:00:00 - 18.01.2019 00:00:00 (CET)Diepenbeek, Belgique (6477): Quantités de précipitations: 12.01.2019 00:00:00 - 18.01.2019 00:00:00 (CET)
Date & Time tt [°C] td [°C] ff [km/h] ff [knt] fx [km/h] fx [knt] dd ppp [hPa] sd [min] rr [mm]
18.01.2019 00:00:00 1,4 1,1 8 4 19 11 WNW 1015,6 0 0,0
17.01.2019 23:00:00 1,2 0,9 8 5 24 13 W 1014,9 0 0,2
17.01.2019 22:00:00 1,4 0,8 13 7 22 12 W 1014,1 0 0,0
17.01.2019 21:00:00 1,2 0,9 10 5 24 13 W 1013,1 0 0,0
17.01.2019 20:00:00 2,0 1,3 14 8 32 18 WNW 1011,8 0 0,1
17.01.2019 19:00:00 1,3 0,9 22 12 43 23 W 1010,2 0 0,3
17.01.2019 18:00:00 2,0 0,8 13 7 24 13 W 1009,2 0 0,0
17.01.2019 17:00:00 1,3 0,8 14 8 43 23 W 1009,0 9 0,3
17.01.2019 16:00:00 2,7 1,3 14 8 42 23 W 1007,8 3 0,1
17.01.2019 15:00:00 2,9 1,7 15 8 58 32 WNW 1006,9 0 0,3
17.01.2019 14:00:00 4,4 3,2 22 12 35 19 WNW 1005,5 0 0,2
17.01.2019 13:00:00 3,9 3,4 14 8 36 19 W 1004,7 0 1,0
17.01.2019 12:00:00 4,5 3,7 23 12 50 27 W 1004,2 0 1,0
17.01.2019 11:00:00 4,7 4,1 17 9 33 18 W 1003,5 0 1,8
17.01.2019 10:00:00 5,3 4,4 17 9 29 16 SSW 1002,8 0 0,3
17.01.2019 09:00:00 4,6 3,8 13 7 19 10 SSW 1003,1 0 0,0
17.01.2019 08:00:00 3,9 3,3 10 5 19 11 SW 1003,5 0 0,0
17.01.2019 07:00:00 5,0 4,2 11 6 19 10 SW 1003,7 0 0,0
17.01.2019 06:00:00 5,3 4,6 12 6 20 11 WSW 1004,0 0 0,0
17.01.2019 05:00:00 5,7 5,2 11 6 24 13 WSW 1004,0 0 0,0
17.01.2019 04:00:00 5,6 5,4 9 5 21 11 WSW 1003,8 0 0,2
17.01.2019 03:00:00 5,5 5,5 11 6 28 15 W 1004,2 0 0,7
17.01.2019 02:00:00 5,2 5,1 18 10 32 17 WSW 1004,2 0 0,6
17.01.2019 01:00:00 4,9 4,6 22 12 37 20 SW 1004,1 0 0,4
17.01.2019 00:00:00 5,1 3,9 22 12 43 23 SW 1004,2 0 0,1
16.01.2019 23:00:00 5,9 2,6 25 14 43 23 SW 1004,2 0 0,0
16.01.2019 22:00:00 5,7 2,4 26 14 39 21 SW 1004,5 0 0,0
16.01.2019 21:00:00 5,6 2,3 21 12 32 17 SW 1004,8 0 0,0
16.01.2019 20:00:00 5,7 2,1 19 11 34 19 SW 1005,5 0 0,0
16.01.2019 19:00:00 5,7 2,3 22 12 36 19 SW 1006,2 0 0,0
16.01.2019 18:00:00 5,3 2,2 13 7 23 12 SW 1006,6 0 0,0
16.01.2019 17:00:00 5,5 2,1 11 6 21 11 SSW 1006,9 0 0,0
16.01.2019 16:00:00 6,3 2,3 16 8 33 18 SW 1007,5 0 0,0
16.01.2019 15:00:00 6,4 2,3 19 10 33 18 SW 1008,5 0 0,0
16.01.2019 14:00:00 6,1 2,0 24 13 38 21 SW 1009,5 0 0,0
16.01.2019 13:00:00 5,8 2,2 22 12 33 18 SW 1010,8 0 0,0
16.01.2019 12:00:00 5,7 2,2 19 11 29 16 SW 1011,8 0 0,0
16.01.2019 11:00:00 5,6 2,4 16 9 32 17 SW 1012,7 0 0,0
16.01.2019 10:00:00 5,5 2,6 21 12 35 19 SSW 1013,2 0 0,0
16.01.2019 09:00:00 5,6 2,8 21 12 35 19 SSW 1013,2 0 0,0
16.01.2019 08:00:00 6,1 2,7 22 12 35 19 SW 1013,4 0 0,0
16.01.2019 07:00:00 6,1 3,1 22 12 34 18 SW 1013,7 0 0,0
16.01.2019 06:00:00 6,2 3,4 20 11 29 16 SW 1014,3 0 0,0
16.01.2019 05:00:00 6,3 3,8 19 10 36 19 SW 1014,9 0 0,0
16.01.2019 04:00:00 6,3 4,1 22 12 35 19 SW 1015,5 0 0,0
16.01.2019 03:00:00 6,0 4,6 22 12 29 16 SSW 1016,1 0 0,2
16.01.2019 02:00:00 5,7 5,2 16 9 29 15 SW 1016,8 0 0,0
16.01.2019 01:00:00 5,8 5,3 18 10 34 19 SW 1017,1 0 0,1
16.01.2019 00:00:00 6,0 5,2 19 10 34 18 SW 1017,5 0 0,0
15.01.2019 23:00:00 6,5 5,0 22 12 36 20 SW 1018,0 0 0,0
15.01.2019 22:00:00 6,6 5,0 20 11 32 17 SW 1018,1 0 0,0
15.01.2019 21:00:00 6,7 4,7 20 11 30 16 WSW 1018,4 0 0,0
15.01.2019 20:00:00 6,7 4,5 18 10 35 19 WSW 1018,8 0 0,0
15.01.2019 19:00:00 6,7 4,4 22 12 31 17 WSW 1019,0 0 0,0
15.01.2019 18:00:00 6,7 4,5 21 11 33 18 WSW 1019,1 0 0,0
15.01.2019 17:00:00 6,9 4,5 19 10 31 17 WSW 1019,0 0 0,0
15.01.2019 16:00:00 6,8 4,7 15 8 27 14 WSW 1019,4 0 0,0
15.01.2019 15:00:00 7,1 4,2 19 10 30 16 WSW 1019,6 0 0,0
15.01.2019 14:00:00 7,4 3,7 20 11 47 26 WSW 1019,9 0 0,0
15.01.2019 13:00:00 7,4 3,3 22 12 38 21 WSW 1020,1 35 0,0
15.01.2019 12:00:00 6,9 3,9 19 10 32 17 WSW 1020,8 0 0,0
15.01.2019 11:00:00 6,2 3,9 16 9 29 15 WSW 1021,2 0 0,0
15.01.2019 10:00:00 5,3 4,0 16 9 24 13 WSW 1021,2 0 0,0
15.01.2019 09:00:00 4,8 3,8 16 8 24 13 WSW 1021,1 0 0,0
15.01.2019 08:00:00 4,6 3,6 13 7 22 12 WSW 1021,2 0 0,0
15.01.2019 07:00:00 4,2 3,4 11 6 23 13 WSW 1021,3 0 0,0
15.01.2019 06:00:00 4,0 3,1 13 7 21 12 SW 1021,7 0 0,0
15.01.2019 05:00:00 3,5 2,9 12 6 19 11 WSW 1022,2 0 0,0
15.01.2019 04:00:00 3,4 2,7 11 6 16 9 SW 1022,5 0 0,0
15.01.2019 03:00:00 3,7 3,2 9 5 14 7 SW 1022,7 0 0,0
15.01.2019 02:00:00 3,8 3,2 8 4 12 7 WSW 1022,4 0 0,0
15.01.2019 01:00:00 3,1 2,6 7 4 14 7 WSW 1022,4 0 0,0
15.01.2019 00:00:00 2,9 2,0 6 3 13 7 W 1022,4 0 0,0
14.01.2019 23:00:00 3,4 2,1 6 4 10 5 W 1022,3 0 0,0
14.01.2019 22:00:00 3,9 2,1 6 4 22 12 WNW 1022,3 0 0,1
14.01.2019 21:00:00 3,6 1,7 6 3 12 6 W 1022,1 0 0,0
14.01.2019 20:00:00 2,8 1,5 7 4 11 6 W 1021,7 0 0,0
14.01.2019 19:00:00 3,6 1,4 7 4 10 5 WNW 1021,0 0 0,0
14.01.2019 18:00:00 3,0 1,4 5 3 12 6 WNW 1020,5 0 0,0
14.01.2019 17:00:00 4,2 1,8 8 5 23 12 NW 1020,0 25 0,1
14.01.2019 16:00:00 5,0 2,6 18 10 34 18 NNW 1019,2 34 0,3
14.01.2019 15:00:00 5,9 3,3 13 7 35 19 NW 1017,9 31 1,3
14.01.2019 14:00:00 6,5 4,3 16 9 41 22 NW 1017,7 21 0,2
14.01.2019 13:00:00 5,7 4,3 6 3 47 25 NNW 1016,7 18 0,7
14.01.2019 12:00:00 6,9 4,3 16 9 32 18 NW 1016,0 9 0,0
14.01.2019 11:00:00 6,6 5,0 14 7 30 16 NW 1015,4 18 0,0
14.01.2019 10:00:00 6,1 4,1 14 7 30 16 NW 1014,5 1 0,0
14.01.2019 09:00:00 6,2 4,1 16 8 37 20 NW 1013,4 0 0,0
14.01.2019 08:00:00 6,4 4,1 15 8 30 16 WNW 1012,6 0 0,0
14.01.2019 07:00:00 6,7 4,6 11 6 25 14 WNW 1011,7 0 0,0
14.01.2019 06:00:00 6,6 4,5 14 8 25 14 W 1011,4 0 0,0
14.01.2019 05:00:00 6,6 4,7 13 7 32 17 WNW 1011,0 0 0,2
14.01.2019 04:00:00 7,2 4,7 16 8 31 17 WNW 1010,5 0 0,0
14.01.2019 03:00:00 7,2 4,7 15 8 34 18 WNW 1009,7 0 0,0
14.01.2019 02:00:00 7,5 4,8 17 9 33 18 NW 1008,8 0 0,0
14.01.2019 01:00:00 7,4 4,8 14 8 35 19 WNW 1008,2 0 0,0
14.01.2019 00:00:00 8,0 5,0 16 8 39 21 NW 1007,8 0 0,0
13.01.2019 23:00:00 8,3 6,1 18 10 39 21 NW 1007,1 0 0,0
13.01.2019 22:00:00 8,2 6,4 20 11 44 24 NW 1006,5 0 0,2
13.01.2019 21:00:00 8,9 6,6 24 13 45 24 NW 1005,8 0 0,4
13.01.2019 20:00:00 8,8 7,9 21 11 50 27 WNW 1005,8 0 3,1
13.01.2019 19:00:00 9,6 7,3 25 14 40 22 W 1005,8 0 0,0
13.01.2019 18:00:00 9,1 7,9 21 11 43 23 W 1006,2 0 0,0
13.01.2019 17:00:00 9,0 8,6 20 11 38 20 W 1006,7 0 1,1
13.01.2019 16:00:00 9,1 8,8 22 12 43 23 W 1006,4 0 0,7
13.01.2019 15:00:00 9,1 8,8 22 12 36 20 W 1006,8 0 1,5
13.01.2019 14:00:00 9,0 8,7 19 10 34 18 W 1007,6 0 2,1
13.01.2019 13:00:00 9,0 8,8 18 10 34 19 W 1008,6 0 0,6
13.01.2019 12:00:00 9,4 7,9 18 10 36 19 W 1009,4 0 0,0
13.01.2019 11:00:00 9,2 7,9 18 10 35 19 W 1010,2 0 0,0
13.01.2019 10:00:00 8,8 8,1 17 9 35 19 W 1010,7 0 0,0
13.01.2019 09:00:00 8,7 8,3 20 11 35 19 W 1011,0 0 0,7
13.01.2019 08:00:00 8,4 8,4 16 9 34 18 W 1011,1 0 0,7
13.01.2019 07:00:00 8,0 8,0 14 8 25 14 WSW 1011,3 0 0,2
13.01.2019 06:00:00 7,6 7,6 14 7 24 13 WSW 1012,5 0 0,2
13.01.2019 05:00:00 7,4 7,4 13 7 25 14 WSW 1013,3 0 0,3
13.01.2019 04:00:00 7,1 7,1 15 8 25 14 W 1013,9 0 0,4
13.01.2019 03:00:00 7,2 7,2 12 7 29 15 WSW 1014,5 0 0,5
13.01.2019 02:00:00 7,2 7,1 12 6 20 11 W 1015,0 0 0,3
13.01.2019 01:00:00 7,2 7,0 11 6 23 13 W 1015,2 0 0,4
13.01.2019 00:00:00 7,7 6,4 13 7 28 15 W 1015,7 0 0,0
12.01.2019 23:00:00 7,7 6,5 13 7 24 13 W 1015,8 0 0,0
12.01.2019 22:00:00 7,9 6,5 15 8 29 16 W 1016,1 0 0,0
12.01.2019 21:00:00 7,8 6,7 14 7 30 16 W 1016,3 0 0,0
12.01.2019 20:00:00 7,6 6,9 15 8 31 17 W 1016,3 0 0,1
12.01.2019 19:00:00 7,4 6,5 14 8 31 17 W 1016,7 0 0,1
12.01.2019 18:00:00 7,8 7,2 17 9 34 18 W 1016,9 0 2,3
12.01.2019 17:00:00 7,7 7,2 18 10 31 17 W 1016,9 0 0,3
12.01.2019 16:00:00 7,1 6,9 18 10 32 18 WSW 1017,1 0 0,8
12.01.2019 15:00:00 6,7 6,6 18 10 34 19 WSW 1018,0 0 0,3
12.01.2019 14:00:00 6,5 6,1 22 12 32 18 WSW 1018,8 0 0,5
12.01.2019 13:00:00 6,5 5,3 18 10 33 18 WSW 1020,3 0 0,3
12.01.2019 12:00:00 6,6 4,2 19 11 34 18 WSW 1021,3 0 0,0
12.01.2019 11:00:00 6,0 3,7 21 11 34 18 WSW 1022,3 0 0,0
12.01.2019 10:00:00 5,7 3,8 17 9 30 16 WSW 1023,3 0 0,0
12.01.2019 09:00:00 5,6 4,5 16 9 24 13 SW 1023,6 0 0,0
12.01.2019 08:00:00 5,8 4,9 16 9 25 14 WSW 1024,1 0 0,0
12.01.2019 07:00:00 5,7 4,9 14 8 25 13 W 1024,7 0 0,0
12.01.2019 06:00:00 5,4 4,8 10 6 21 12 WSW 1024,9 0 0,0
12.01.2019 05:00:00 5,5 4,8 9 5 19 10 WSW 1025,3 0 0,2
12.01.2019 04:00:00 5,9 5,6 10 5 16 8 W 1026,0 0 0,1
12.01.2019 03:00:00 6,0 5,7 10 6 20 11 W 1026,3 0 0,0
12.01.2019 02:00:00 6,2 5,9 11 6 19 10 WNW 1026,5 0 0,0
12.01.2019 01:00:00 6,3 5,9 11 6 16 9 WNW 1026,7 0 0,0
12.01.2019 00:00:00 6,3 5,9 10 6 21 11 WNW 1026,7 0 0,0

tt = Température de l'air
td = dewpoint
ff = Vitesse du vent
fx = gusts
dd = Direction du vent
ppp = reduced air pressure
sd = Ensoleillement
rr = Quantités de précipitations

stations d'obs. à proximité